ΕΜΥ, Εθνική Μετεωρολογική Υπηρεσία - Δελτία Καιρού, Προγνώσεις

ΑΕΡΟΝΑΥΤΙΛΙΑ

GREEK AIRPORTS CODES

TAF LGMT 021700Z 0218/0303 25010KT 9999 SCT025 PROB30 TEMPO 0221/0303 5000 RA FEW018TCU BKN025=

EUROPEAN AIRPORTS CODES

LFPO 021830Z 23006KT 9999 BKN033 09/04 Q1033 NOSIG=